sensor_id;sensor_type;location;lat;lon;timestamp;temperature;humidity
3134;DHT22;1577;49.912;10.924;2023-02-18T00:01:44;10.70;99.90
3134;DHT22;1577;49.912;10.924;2023-02-18T00:04:10;10.70;99.90
3134;DHT22;1577;49.912;10.924;2023-02-18T00:06:35;10.60;99.90
3134;DHT22;1577;49.912;10.924;2023-02-18T00:09:02;10.60;99.90
3134;DHT22;1577;49.912;10.924;2023-02-18T00:11:31;10.60;99.90
3134;DHT22;1577;49.912;10.924;2023-02-18T00:13:58;10.60;99.90
3134;DHT22;1577;49.912;10.924;2023-02-18T00:16:25;10.60;99.90
3134;DHT22;1577;49.912;10.924;2023-02-18T00:18:57;10.60;99.90
3134;DHT22;1577;49.912;10.924;2023-02-18T00:21:23;10.60;99.90
3134;DHT22;1577;49.912;10.924;2023-02-18T00:23:49;10.60;99.90
3134;DHT22;1577;49.912;10.924;2023-02-18T00:26:15;10.50;99.90
3134;DHT22;1577;49.912;10.924;2023-02-18T00:28:42;10.60;99.90
3134;DHT22;1577;49.912;10.924;2023-02-18T00:31:12;10.60;99.90
3134;DHT22;1577;49.912;10.924;2023-02-18T00:33:39;10.60;99.90
3134;DHT22;1577;49.912;10.924;2023-02-18T00:36:07;10.60;99.90
3134;DHT22;1577;49.912;10.924;2023-02-18T00:38:33;10.60;99.90
3134;DHT22;1577;49.912;10.924;2023-02-18T00:41:00;10.50;99.90
3134;DHT22;1577;49.912;10.924;2023-02-18T00:43:26;10.50;99.90
3134;DHT22;1577;49.912;10.924;2023-02-18T00:45:52;10.40;99.90
3134;DHT22;1577;49.912;10.924;2023-02-18T00:48:18;10.40;99.90
3134;DHT22;1577;49.912;10.924;2023-02-18T00:50:44;10.30;99.90
3134;DHT22;1577;49.912;10.924;2023-02-18T00:53:10;10.30;99.90
3134;DHT22;1577;49.912;10.924;2023-02-18T00:55:40;10.30;99.90
3134;DHT22;1577;49.912;10.924;2023-02-18T00:58:06;10.30;99.90
3134;DHT22;1577;49.912;10.924;2023-02-18T01:00:31;10.30;99.90
3134;DHT22;1577;49.912;10.924;2023-02-18T01:02:57;10.40;99.90
3134;DHT22;1577;49.912;10.924;2023-02-18T01:05:23;10.40;99.90
3134;DHT22;1577;49.912;10.924;2023-02-18T01:07:48;10.40;99.90
3134;DHT22;1577;49.912;10.924;2023-02-18T01:10:14;10.30;99.90
3134;DHT22;1577;49.912;10.924;2023-02-18T01:12:39;10.30;99.90
3134;DHT22;1577;49.912;10.924;2023-02-18T01:15:06;10.30;99.90
3134;DHT22;1577;49.912;10.924;2023-02-18T01:17:32;10.40;99.90
3134;DHT22;1577;49.912;10.924;2023-02-18T01:19:57;10.50;99.90
3134;DHT22;1577;49.912;10.924;2023-02-18T01:22:24;10.50;99.90
3134;DHT22;1577;49.912;10.924;2023-02-18T01:24:49;10.50;99.90
3134;DHT22;1577;49.912;10.924;2023-02-18T01:27:15;10.50;99.90
3134;DHT22;1577;49.912;10.924;2023-02-18T01:29:41;10.50;99.90
3134;DHT22;1577;49.912;10.924;2023-02-18T01:32:06;10.60;99.90
3134;DHT22;1577;49.912;10.924;2023-02-18T01:34:33;10.70;99.90
3134;DHT22;1577;49.912;10.924;2023-02-18T01:36:58;10.70;99.90
3134;DHT22;1577;49.912;10.924;2023-02-18T01:39:24;10.70;99.90
3134;DHT22;1577;49.912;10.924;2023-02-18T01:41:50;10.70;99.90
3134;DHT22;1577;49.912;10.924;2023-02-18T01:44:24;10.70;99.90
3134;DHT22;1577;49.912;10.924;2023-02-18T01:46:50;10.70;99.90
3134;DHT22;1577;49.912;10.924;2023-02-18T01:49:31;10.70;99.90
3134;DHT22;1577;49.912;10.924;2023-02-18T01:52:20;10.70;99.90
3134;DHT22;1577;49.912;10.924;2023-02-18T01:54:49;10.60;99.90
3134;DHT22;1577;49.912;10.924;2023-02-18T01:57:36;10.60;99.90
3134;DHT22;1577;49.912;10.924;2023-02-18T02:00:23;10.50;99.90
3134;DHT22;1577;49.912;10.924;2023-02-18T02:02:51;10.50;99.90
3134;DHT22;1577;49.912;10.924;2023-02-18T02:05:18;10.50;99.90
3134;DHT22;1577;49.912;10.924;2023-02-18T02:07:45;10.50;99.90
3134;DHT22;1577;49.912;10.924;2023-02-18T02:10:13;10.50;99.90
3134;DHT22;1577;49.912;10.924;2023-02-18T02:13:04;10.50;99.90
3134;DHT22;1577;49.912;10.924;2023-02-18T02:15:46;10.50;99.90
3134;DHT22;1577;49.912;10.924;2023-02-18T02:24:17;10.50;99.90
3134;DHT22;1577;49.912;10.924;2023-02-18T02:32:45;10.40;99.90
3134;DHT22;1577;49.912;10.924;2023-02-18T02:35:28;10.40;99.90
3134;DHT22;1577;49.912;10.924;2023-02-18T02:38:06;10.40;99.90
3134;DHT22;1577;49.912;10.924;2023-02-18T02:40:51;10.30;99.90
3134;DHT22;1577;49.912;10.924;2023-02-18T02:44:08;10.40;99.90
3134;DHT22;1577;49.912;10.924;2023-02-18T02:46:51;10.40;99.90
3134;DHT22;1577;49.912;10.924;2023-02-18T02:49:46;10.40;99.90
3134;DHT22;1577;49.912;10.924;2023-02-18T02:52:19;10.40;99.90
3134;DHT22;1577;49.912;10.924;2023-02-18T02:54:46;10.50;99.90
3134;DHT22;1577;49.912;10.924;2023-02-18T02:59:43;10.50;99.90
3134;DHT22;1577;49.912;10.924;2023-02-18T03:05:29;10.40;99.90
3134;DHT22;1577;49.912;10.924;2023-02-18T03:11:12;10.30;99.90
3134;DHT22;1577;49.912;10.924;2023-02-18T03:21:47;10.30;99.90
3134;DHT22;1577;49.912;10.924;2023-02-18T03:24:22;10.30;99.90
3134;DHT22;1577;49.912;10.924;2023-02-18T03:26:52;10.40;99.90
3134;DHT22;1577;49.912;10.924;2023-02-18T03:29:20;10.50;99.90
3134;DHT22;1577;49.912;10.924;2023-02-18T03:31:50;10.50;99.90
3134;DHT22;1577;49.912;10.924;2023-02-18T03:34:22;10.50;99.90
3134;DHT22;1577;49.912;10.924;2023-02-18T03:36:49;10.50;99.90
3134;DHT22;1577;49.912;10.924;2023-02-18T03:39:18;10.60;99.90
3134;DHT22;1577;49.912;10.924;2023-02-18T03:41:44;10.60;99.90
3134;DHT22;1577;49.912;10.924;2023-02-18T03:44:11;10.50;99.90
3134;DHT22;1577;49.912;10.924;2023-02-18T03:46:39;10.60;99.90
3134;DHT22;1577;49.912;10.924;2023-02-18T03:49:07;10.60;99.90
3134;DHT22;1577;49.912;10.924;2023-02-18T03:51:33;10.50;99.90
3134;DHT22;1577;49.912;10.924;2023-02-18T03:53:58;10.50;99.90
3134;DHT22;1577;49.912;10.924;2023-02-18T03:56:24;10.50;99.90
3134;DHT22;1577;49.912;10.924;2023-02-18T03:58:49;10.50;99.90
3134;DHT22;1577;49.912;10.924;2023-02-18T04:01:15;10.50;99.90
3134;DHT22;1577;49.912;10.924;2023-02-18T04:03:41;10.50;99.90
3134;DHT22;1577;49.912;10.924;2023-02-18T04:06:07;10.50;99.90
3134;DHT22;1577;49.912;10.924;2023-02-18T04:08:33;10.50;99.90
3134;DHT22;1577;49.912;10.924;2023-02-18T04:10:58;10.50;99.90
3134;DHT22;1577;49.912;10.924;2023-02-18T04:13:25;10.50;99.90
3134;DHT22;1577;49.912;10.924;2023-02-18T04:15:51;10.50;99.90
3134;DHT22;1577;49.912;10.924;2023-02-18T04:18:17;10.40;99.90
3134;DHT22;1577;49.912;10.924;2023-02-18T04:20:43;10.40;99.90
3134;DHT22;1577;49.912;10.924;2023-02-18T04:23:10;10.40;99.90
3134;DHT22;1577;49.912;10.924;2023-02-18T04:25:36;10.40;99.90
3134;DHT22;1577;49.912;10.924;2023-02-18T04:28:02;10.40;99.90
3134;DHT22;1577;49.912;10.924;2023-02-18T04:30:27;10.30;99.90
3134;DHT22;1577;49.912;10.924;2023-02-18T04:32:53;10.30;99.90
3134;DHT22;1577;49.912;10.924;2023-02-18T04:35:19;10.30;99.90
3134;DHT22;1577;49.912;10.924;2023-02-18T04:37:44;10.30;99.90
3134;DHT22;1577;49.912;10.924;2023-02-18T04:40:10;10.30;99.90
3134;DHT22;1577;49.912;10.924;2023-02-18T04:42:36;10.30;99.90
3134;DHT22;1577;49.912;10.924;2023-02-18T04:45:02;10.30;99.90
3134;DHT22;1577;49.912;10.924;2023-02-18T04:47:28;10.30;99.90
3134;DHT22;1577;49.912;10.924;2023-02-18T04:49:53;10.40;99.90
3134;DHT22;1577;49.912;10.924;2023-02-18T04:52:19;10.40;99.90
3134;DHT22;1577;49.912;10.924;2023-02-18T04:54:45;10.40;99.90
3134;DHT22;1577;49.912;10.924;2023-02-18T04:57:11;10.40;99.90
3134;DHT22;1577;49.912;10.924;2023-02-18T04:59:37;10.40;99.90
3134;DHT22;1577;49.912;10.924;2023-02-18T05:02:03;10.40;99.90
3134;DHT22;1577;49.912;10.924;2023-02-18T05:04:29;10.40;99.90
3134;DHT22;1577;49.912;10.924;2023-02-18T05:06:54;10.40;99.90
3134;DHT22;1577;49.912;10.924;2023-02-18T05:09:20;10.40;99.90
3134;DHT22;1577;49.912;10.924;2023-02-18T05:11:46;10.40;99.90
3134;DHT22;1577;49.912;10.924;2023-02-18T05:14:12;10.40;99.90
3134;DHT22;1577;49.912;10.924;2023-02-18T05:16:38;10.40;99.90
3134;DHT22;1577;49.912;10.924;2023-02-18T05:19:04;10.40;99.90
3134;DHT22;1577;49.912;10.924;2023-02-18T05:21:29;10.40;99.90
3134;DHT22;1577;49.912;10.924;2023-02-18T05:23:55;10.40;99.90
3134;DHT22;1577;49.912;10.924;2023-02-18T05:26:21;10.40;99.90
3134;DHT22;1577;49.912;10.924;2023-02-18T05:28:47;10.40;99.90
3134;DHT22;1577;49.912;10.924;2023-02-18T05:31:12;10.30;99.90
3134;DHT22;1577;49.912;10.924;2023-02-18T05:33:38;10.30;99.90
3134;DHT22;1577;49.912;10.924;2023-02-18T05:36:04;10.30;99.90
3134;DHT22;1577;49.912;10.924;2023-02-18T05:38:29;10.30;99.90
3134;DHT22;1577;49.912;10.924;2023-02-18T05:40:55;10.30;99.90
3134;DHT22;1577;49.912;10.924;2023-02-18T05:43:20;10.30;99.90
3134;DHT22;1577;49.912;10.924;2023-02-18T05:45:46;10.30;99.90
3134;DHT22;1577;49.912;10.924;2023-02-18T05:48:12;10.30;99.90
3134;DHT22;1577;49.912;10.924;2023-02-18T05:50:38;10.30;99.90
3134;DHT22;1577;49.912;10.924;2023-02-18T05:53:05;10.30;99.90
3134;DHT22;1577;49.912;10.924;2023-02-18T05:55:31;10.30;99.90
3134;DHT22;1577;49.912;10.924;2023-02-18T05:57:57;10.30;99.90
3134;DHT22;1577;49.912;10.924;2023-02-18T06:00:23;10.30;99.90
3134;DHT22;1577;49.912;10.924;2023-02-18T06:02:49;10.30;99.90
3134;DHT22;1577;49.912;10.924;2023-02-18T06:05:15;10.30;99.90
3134;DHT22;1577;49.912;10.924;2023-02-18T06:07:41;10.30;99.90
3134;DHT22;1577;49.912;10.924;2023-02-18T06:10:06;10.30;99.90
3134;DHT22;1577;49.912;10.924;2023-02-18T06:12:32;10.30;99.90
3134;DHT22;1577;49.912;10.924;2023-02-18T06:14:58;10.30;99.90
3134;DHT22;1577;49.912;10.924;2023-02-18T06:17:23;10.30;99.90
3134;DHT22;1577;49.912;10.924;2023-02-18T06:19:49;10.30;99.90
3134;DHT22;1577;49.912;10.924;2023-02-18T06:22:14;10.30;99.90
3134;DHT22;1577;49.912;10.924;2023-02-18T06:24:40;10.30;99.90
3134;DHT22;1577;49.912;10.924;2023-02-18T06:27:06;10.30;99.90
3134;DHT22;1577;49.912;10.924;2023-02-18T06:29:31;10.30;99.90
3134;DHT22;1577;49.912;10.924;2023-02-18T06:31:58;10.30;99.90
3134;DHT22;1577;49.912;10.924;2023-02-18T06:34:24;10.30;99.90
3134;DHT22;1577;49.912;10.924;2023-02-18T06:36:51;10.30;99.90
3134;DHT22;1577;49.912;10.924;2023-02-18T06:39:16;10.30;99.90
3134;DHT22;1577;49.912;10.924;2023-02-18T06:41:42;10.30;99.90
3134;DHT22;1577;49.912;10.924;2023-02-18T06:44:07;10.30;99.90
3134;DHT22;1577;49.912;10.924;2023-02-18T06:46:33;10.30;99.90
3134;DHT22;1577;49.912;10.924;2023-02-18T06:48:59;10.40;99.90
3134;DHT22;1577;49.912;10.924;2023-02-18T06:51:24;10.40;99.90
3134;DHT22;1577;49.912;10.924;2023-02-18T06:53:50;10.40;99.90
3134;DHT22;1577;49.912;10.924;2023-02-18T06:56:16;10.40;99.90
3134;DHT22;1577;49.912;10.924;2023-02-18T06:58:42;10.40;99.90
3134;DHT22;1577;49.912;10.924;2023-02-18T07:01:07;10.40;99.90
3134;DHT22;1577;49.912;10.924;2023-02-18T07:03:33;10.40;99.90
3134;DHT22;1577;49.912;10.924;2023-02-18T07:05:59;10.40;99.90
3134;DHT22;1577;49.912;10.924;2023-02-18T07:08:25;10.40;99.90
3134;DHT22;1577;49.912;10.924;2023-02-18T07:10:50;10.40;99.90
3134;DHT22;1577;49.912;10.924;2023-02-18T07:13:16;10.40;99.90
3134;DHT22;1577;49.912;10.924;2023-02-18T07:15:42;10.40;99.90
3134;DHT22;1577;49.912;10.924;2023-02-18T07:18:07;10.40;99.90
3134;DHT22;1577;49.912;10.924;2023-02-18T07:20:33;10.30;99.90
3134;DHT22;1577;49.912;10.924;2023-02-18T07:22:58;10.30;99.90
3134;DHT22;1577;49.912;10.924;2023-02-18T07:25:24;10.30;99.90
3134;DHT22;1577;49.912;10.924;2023-02-18T07:27:50;10.30;99.90
3134;DHT22;1577;49.912;10.924;2023-02-18T07:30:17;10.20;99.90
3134;DHT22;1577;49.912;10.924;2023-02-18T07:32:43;10.20;99.90
3134;DHT22;1577;49.912;10.924;2023-02-18T07:35:12;10.20;99.90
3134;DHT22;1577;49.912;10.924;2023-02-18T07:37:39;10.20;99.90
3134;DHT22;1577;49.912;10.924;2023-02-18T07:40:05;10.20;99.90
3134;DHT22;1577;49.912;10.924;2023-02-18T07:42:31;10.20;99.90
3134;DHT22;1577;49.912;10.924;2023-02-18T07:44:57;10.20;99.90
3134;DHT22;1577;49.912;10.924;2023-02-18T07:47:22;10.20;99.90
3134;DHT22;1577;49.912;10.924;2023-02-18T07:49:48;10.20;99.90
3134;DHT22;1577;49.912;10.924;2023-02-18T07:52:14;10.20;99.90
3134;DHT22;1577;49.912;10.924;2023-02-18T07:54:41;10.20;99.90
3134;DHT22;1577;49.912;10.924;2023-02-18T07:57:07;10.20;99.90
3134;DHT22;1577;49.912;10.924;2023-02-18T07:59:32;10.30;99.90
3134;DHT22;1577;49.912;10.924;2023-02-18T08:01:58;10.30;99.90
3134;DHT22;1577;49.912;10.924;2023-02-18T08:04:23;10.30;99.90
3134;DHT22;1577;49.912;10.924;2023-02-18T08:06:49;10.40;99.90
3134;DHT22;1577;49.912;10.924;2023-02-18T08:09:16;10.50;99.90
3134;DHT22;1577;49.912;10.924;2023-02-18T08:11:42;10.50;99.90
3134;DHT22;1577;49.912;10.924;2023-02-18T08:14:08;10.60;99.90
3134;DHT22;1577;49.912;10.924;2023-02-18T08:16:34;10.60;99.90
3134;DHT22;1577;49.912;10.924;2023-02-18T08:19:00;10.70;99.90
3134;DHT22;1577;49.912;10.924;2023-02-18T08:21:27;10.80;99.90
3134;DHT22;1577;49.912;10.924;2023-02-18T08:23:53;10.80;99.90
3134;DHT22;1577;49.912;10.924;2023-02-18T08:26:19;10.90;99.90
3134;DHT22;1577;49.912;10.924;2023-02-18T08:28:46;11.00;99.90
3134;DHT22;1577;49.912;10.924;2023-02-18T08:31:25;11.00;99.90
3134;DHT22;1577;49.912;10.924;2023-02-18T08:33:52;11.10;99.90
3134;DHT22;1577;49.912;10.924;2023-02-18T08:36:19;11.10;99.90
3134;DHT22;1577;49.912;10.924;2023-02-18T08:38:45;11.20;99.90
3134;DHT22;1577;49.912;10.924;2023-02-18T08:41:11;11.30;99.90
3134;DHT22;1577;49.912;10.924;2023-02-18T08:43:39;11.30;99.90
3134;DHT22;1577;49.912;10.924;2023-02-18T08:46:04;11.40;99.90
3134;DHT22;1577;49.912;10.924;2023-02-18T08:48:30;11.50;99.90
3134;DHT22;1577;49.912;10.924;2023-02-18T08:50:56;11.60;99.90
3134;DHT22;1577;49.912;10.924;2023-02-18T08:53:22;11.60;99.90
3134;DHT22;1577;49.912;10.924;2023-02-18T08:55:47;11.60;99.90
3134;DHT22;1577;49.912;10.924;2023-02-18T08:58:13;11.60;99.90
3134;DHT22;1577;49.912;10.924;2023-02-18T09:00:40;11.60;99.90
3134;DHT22;1577;49.912;10.924;2023-02-18T09:03:06;11.60;99.90
3134;DHT22;1577;49.912;10.924;2023-02-18T09:05:32;11.70;99.90
3134;DHT22;1577;49.912;10.924;2023-02-18T09:07:57;11.70;99.90
3134;DHT22;1577;49.912;10.924;2023-02-18T09:10:23;11.70;99.90
3134;DHT22;1577;49.912;10.924;2023-02-18T09:12:49;11.70;99.90
3134;DHT22;1577;49.912;10.924;2023-02-18T09:15:14;11.60;99.90
3134;DHT22;1577;49.912;10.924;2023-02-18T09:17:40;11.60;99.90
3134;DHT22;1577;49.912;10.924;2023-02-18T09:20:06;11.60;99.90
3134;DHT22;1577;49.912;10.924;2023-02-18T09:22:32;11.70;99.90
3134;DHT22;1577;49.912;10.924;2023-02-18T09:24:58;11.70;99.90
3134;DHT22;1577;49.912;10.924;2023-02-18T09:27:24;11.80;99.90
3134;DHT22;1577;49.912;10.924;2023-02-18T09:29:49;11.90;99.90
3134;DHT22;1577;49.912;10.924;2023-02-18T09:32:15;12.00;99.90
3134;DHT22;1577;49.912;10.924;2023-02-18T09:34:43;12.20;99.90
3134;DHT22;1577;49.912;10.924;2023-02-18T09:37:08;12.30;99.90
3134;DHT22;1577;49.912;10.924;2023-02-18T09:39:35;12.40;99.90
3134;DHT22;1577;49.912;10.924;2023-02-18T09:42:02;12.40;99.90
3134;DHT22;1577;49.912;10.924;2023-02-18T09:44:46;12.50;99.90
3134;DHT22;1577;49.912;10.924;2023-02-18T09:47:38;12.50;99.90
3134;DHT22;1577;49.912;10.924;2023-02-18T09:52:35;12.50;99.90
3134;DHT22;1577;49.912;10.924;2023-02-18T09:57:48;12.50;99.90
3134;DHT22;1577;49.912;10.924;2023-02-18T10:00:19;12.40;99.90
3134;DHT22;1577;49.912;10.924;2023-02-18T10:02:57;12.30;99.90
3134;DHT22;1577;49.912;10.924;2023-02-18T10:05:26;12.30;99.90
3134;DHT22;1577;49.912;10.924;2023-02-18T10:07:57;12.20;99.90
3134;DHT22;1577;49.912;10.924;2023-02-18T10:12:58;12.10;99.90
3134;DHT22;1577;49.912;10.924;2023-02-18T10:15:27;12.10;99.90
3134;DHT22;1577;49.912;10.924;2023-02-18T10:17:55;12.00;99.90
3134;DHT22;1577;49.912;10.924;2023-02-18T10:20:24;12.00;99.90
3134;DHT22;1577;49.912;10.924;2023-02-18T10:22:52;12.00;99.90
3134;DHT22;1577;49.912;10.924;2023-02-18T10:25:20;12.10;99.90
3134;DHT22;1577;49.912;10.924;2023-02-18T10:27:48;12.10;99.90
3134;DHT22;1577;49.912;10.924;2023-02-18T10:32:47;12.10;99.90
3134;DHT22;1577;49.912;10.924;2023-02-18T10:35:33;12.10;99.90
3134;DHT22;1577;49.912;10.924;2023-02-18T10:38:12;12.00;99.90
3134;DHT22;1577;49.912;10.924;2023-02-18T10:51:52;12.10;99.90
3134;DHT22;1577;49.912;10.924;2023-02-18T10:54:23;12.10;99.90
3134;DHT22;1577;49.912;10.924;2023-02-18T10:56:51;12.00;99.90
3134;DHT22;1577;49.912;10.924;2023-02-18T11:02:37;12.00;99.90
3134;DHT22;1577;49.912;10.924;2023-02-18T11:05:22;12.00;99.90
3134;DHT22;1577;49.912;10.924;2023-02-18T11:07:54;12.00;99.90
3134;DHT22;1577;49.912;10.924;2023-02-18T11:10:31;12.00;99.90
3134;DHT22;1577;49.912;10.924;2023-02-18T11:13:01;12.00;99.90
3134;DHT22;1577;49.912;10.924;2023-02-18T11:15:28;12.00;99.90
3134;DHT22;1577;49.912;10.924;2023-02-18T11:17:57;12.00;99.90
3134;DHT22;1577;49.912;10.924;2023-02-18T11:20:28;12.00;99.90
3134;DHT22;1577;49.912;10.924;2023-02-18T11:25:40;12.00;99.90
3134;DHT22;1577;49.912;10.924;2023-02-18T11:30:43;11.90;99.90
3134;DHT22;1577;49.912;10.924;2023-02-18T11:36:01;11.90;99.90
3134;DHT22;1577;49.912;10.924;2023-02-18T11:39:16;11.90;99.90
3134;DHT22;1577;49.912;10.924;2023-02-18T11:41:32;12.00;99.90
3134;DHT22;1577;49.912;10.924;2023-02-18T11:43:59;11.90;99.90
3134;DHT22;1577;49.912;10.924;2023-02-18T11:46:26;11.90;99.90
3134;DHT22;1577;49.912;10.924;2023-02-18T11:48:53;11.90;99.90
3134;DHT22;1577;49.912;10.924;2023-02-18T11:51:23;11.90;99.90
3134;DHT22;1577;49.912;10.924;2023-02-18T11:56:38;12.00;99.90
3134;DHT22;1577;49.912;10.924;2023-02-18T11:59:04;12.00;99.90
3134;DHT22;1577;49.912;10.924;2023-02-18T12:04:11;12.10;99.90
3134;DHT22;1577;49.912;10.924;2023-02-18T12:06:45;12.10;99.90
3134;DHT22;1577;49.912;10.924;2023-02-18T12:12:05;12.20;99.90
3134;DHT22;1577;49.912;10.924;2023-02-18T12:14:32;12.20;99.90
3134;DHT22;1577;49.912;10.924;2023-02-18T12:22:57;12.20;99.90
3134;DHT22;1577;49.912;10.924;2023-02-18T12:37:08;12.20;99.90
3134;DHT22;1577;49.912;10.924;2023-02-18T12:48:15;12.40;99.90
3134;DHT22;1577;49.912;10.924;2023-02-18T12:53:34;12.50;99.90
3134;DHT22;1577;49.912;10.924;2023-02-18T12:59:02;12.70;99.90
3134;DHT22;1577;49.912;10.924;2023-02-18T13:04:23;12.70;99.90
3134;DHT22;1577;49.912;10.924;2023-02-18T13:17:41;12.80;99.90
3134;DHT22;1577;49.912;10.924;2023-02-18T13:20:20;12.90;99.90
3134;DHT22;1577;49.912;10.924;2023-02-18T13:22:48;13.10;99.90
3134;DHT22;1577;49.912;10.924;2023-02-18T13:25:16;13.20;99.90
3134;DHT22;1577;49.912;10.924;2023-02-18T13:40:45;12.90;99.90
3134;DHT22;1577;49.912;10.924;2023-02-18T13:45:43;12.70;99.90
3134;DHT22;1577;49.912;10.924;2023-02-18T13:48:25;12.70;99.90
3134;DHT22;1577;49.912;10.924;2023-02-18T13:50:53;12.60;99.90
3134;DHT22;1577;49.912;10.924;2023-02-18T13:53:22;12.50;99.90
3134;DHT22;1577;49.912;10.924;2023-02-18T14:06:30;12.40;99.90
3134;DHT22;1577;49.912;10.924;2023-02-18T14:12:22;12.40;99.90
3134;DHT22;1577;49.912;10.924;2023-02-18T14:14:50;12.40;99.90
3134;DHT22;1577;49.912;10.924;2023-02-18T14:27:44;12.30;99.90
3134;DHT22;1577;49.912;10.924;2023-02-18T14:32:54;12.30;99.90
3134;DHT22;1577;49.912;10.924;2023-02-18T14:35:45;12.30;99.90
3134;DHT22;1577;49.912;10.924;2023-02-18T14:38:29;12.30;99.90
3134;DHT22;1577;49.912;10.924;2023-02-18T14:49:51;12.20;99.90
3134;DHT22;1577;49.912;10.924;2023-02-18T14:52:26;12.10;99.90
3134;DHT22;1577;49.912;10.924;2023-02-18T14:54:53;12.10;99.90
3134;DHT22;1577;49.912;10.924;2023-02-18T14:57:30;12.10;99.90
3134;DHT22;1577;49.912;10.924;2023-02-18T14:59:57;12.20;99.90
3134;DHT22;1577;49.912;10.924;2023-02-18T15:02:28;12.10;99.90
3134;DHT22;1577;49.912;10.924;2023-02-18T15:05:11;12.10;99.90
3134;DHT22;1577;49.912;10.924;2023-02-18T15:07:37;12.10;99.90
3134;DHT22;1577;49.912;10.924;2023-02-18T15:10:03;12.00;99.90
3134;DHT22;1577;49.912;10.924;2023-02-18T15:12:29;12.00;99.90
3134;DHT22;1577;49.912;10.924;2023-02-18T15:15:01;12.00;99.90
3134;DHT22;1577;49.912;10.924;2023-02-18T15:17:28;12.00;99.90
3134;DHT22;1577;49.912;10.924;2023-02-18T15:19:56;12.00;99.90
3134;DHT22;1577;49.912;10.924;2023-02-18T15:22:25;12.00;99.90
3134;DHT22;1577;49.912;10.924;2023-02-18T15:24:53;11.90;99.90
3134;DHT22;1577;49.912;10.924;2023-02-18T15:27:21;11.90;99.90
3134;DHT22;1577;49.912;10.924;2023-02-18T15:29:56;11.90;99.90
3134;DHT22;1577;49.912;10.924;2023-02-18T15:32:24;11.90;99.90
3134;DHT22;1577;49.912;10.924;2023-02-18T15:35:02;11.90;99.90
3134;DHT22;1577;49.912;10.924;2023-02-18T15:37:42;11.80;99.90
3134;DHT22;1577;49.912;10.924;2023-02-18T15:40:16;11.80;99.90
3134;DHT22;1577;49.912;10.924;2023-02-18T15:42:51;11.70;99.90
3134;DHT22;1577;49.912;10.924;2023-02-18T15:45:35;11.70;99.90
3134;DHT22;1577;49.912;10.924;2023-02-18T15:48:03;11.70;99.90
3134;DHT22;1577;49.912;10.924;2023-02-18T15:50:36;11.70;99.90
3134;DHT22;1577;49.912;10.924;2023-02-18T15:53:07;11.70;99.90
3134;DHT22;1577;49.912;10.924;2023-02-18T15:55:36;11.70;99.90
3134;DHT22;1577;49.912;10.924;2023-02-18T15:58:06;11.70;99.90
3134;DHT22;1577;49.912;10.924;2023-02-18T16:00:40;11.70;99.90
3134;DHT22;1577;49.912;10.924;2023-02-18T16:03:14;11.60;99.90
3134;DHT22;1577;49.912;10.924;2023-02-18T16:05:40;11.60;99.90
3134;DHT22;1577;49.912;10.924;2023-02-18T16:08:23;11.60;99.90
3134;DHT22;1577;49.912;10.924;2023-02-18T16:11:02;11.60;99.90
3134;DHT22;1577;49.912;10.924;2023-02-18T16:13:30;11.50;99.90
3134;DHT22;1577;49.912;10.924;2023-02-18T16:15:56;11.40;99.90
3134;DHT22;1577;49.912;10.924;2023-02-18T16:18:41;11.40;99.90
3134;DHT22;1577;49.912;10.924;2023-02-18T16:23:52;11.40;99.90
3134;DHT22;1577;49.912;10.924;2023-02-18T16:26:39;11.40;99.90
3134;DHT22;1577;49.912;10.924;2023-02-18T16:31:46;11.30;99.90
3134;DHT22;1577;49.912;10.924;2023-02-18T16:34:11;11.40;99.90
3134;DHT22;1577;49.912;10.924;2023-02-18T16:36:37;11.30;99.90
3134;DHT22;1577;49.912;10.924;2023-02-18T16:39:22;11.30;99.90
3134;DHT22;1577;49.912;10.924;2023-02-18T16:41:48;11.30;99.90
3134;DHT22;1577;49.912;10.924;2023-02-18T16:44:14;11.30;99.90
3134;DHT22;1577;49.912;10.924;2023-02-18T16:46:40;11.30;99.90
3134;DHT22;1577;49.912;10.924;2023-02-18T16:49:11;11.20;99.90
3134;DHT22;1577;49.912;10.924;2023-02-18T16:51:38;11.20;99.90
3134;DHT22;1577;49.912;10.924;2023-02-18T16:54:04;11.20;99.90
3134;DHT22;1577;49.912;10.924;2023-02-18T16:56:32;11.20;99.90
3134;DHT22;1577;49.912;10.924;2023-02-18T16:58:59;11.20;99.90
3134;DHT22;1577;49.912;10.924;2023-02-18T17:01:36;11.20;99.90
3134;DHT22;1577;49.912;10.924;2023-02-18T17:04:04;11.20;99.90
3134;DHT22;1577;49.912;10.924;2023-02-18T17:06:30;11.20;99.90
3134;DHT22;1577;49.912;10.924;2023-02-18T17:08:57;11.10;99.90
3134;DHT22;1577;49.912;10.924;2023-02-18T17:11:31;11.10;99.90
3134;DHT22;1577;49.912;10.924;2023-02-18T17:13:57;11.10;99.90
3134;DHT22;1577;49.912;10.924;2023-02-18T17:16:24;11.10;99.90
3134;DHT22;1577;49.912;10.924;2023-02-18T17:18:50;11.10;99.90
3134;DHT22;1577;49.912;10.924;2023-02-18T17:21:19;11.10;99.90
3134;DHT22;1577;49.912;10.924;2023-02-18T17:23:46;11.10;99.90
3134;DHT22;1577;49.912;10.924;2023-02-18T17:26:20;11.10;99.90
3134;DHT22;1577;49.912;10.924;2023-02-18T17:28:47;11.10;99.90
3134;DHT22;1577;49.912;10.924;2023-02-18T17:31:34;11.10;99.90
3134;DHT22;1577;49.912;10.924;2023-02-18T17:34:04;11.10;99.90
3134;DHT22;1577;49.912;10.924;2023-02-18T17:36:31;11.00;99.90
3134;DHT22;1577;49.912;10.924;2023-02-18T17:38:57;11.00;99.90
3134;DHT22;1577;49.912;10.924;2023-02-18T17:41:23;11.00;99.90
3134;DHT22;1577;49.912;10.924;2023-02-18T17:43:49;11.00;99.90
3134;DHT22;1577;49.912;10.924;2023-02-18T17:46:16;11.00;99.90
3134;DHT22;1577;49.912;10.924;2023-02-18T17:48:42;10.90;99.90
3134;DHT22;1577;49.912;10.924;2023-02-18T17:51:27;11.00;99.90
3134;DHT22;1577;49.912;10.924;2023-02-18T17:53:54;10.90;99.90
3134;DHT22;1577;49.912;10.924;2023-02-18T17:56:20;10.90;99.90
3134;DHT22;1577;49.912;10.924;2023-02-18T17:58:46;10.90;99.90
3134;DHT22;1577;49.912;10.924;2023-02-18T18:01:13;10.90;99.90
3134;DHT22;1577;49.912;10.924;2023-02-18T18:03:39;10.90;99.90
3134;DHT22;1577;49.912;10.924;2023-02-18T18:06:09;10.90;99.90
3134;DHT22;1577;49.912;10.924;2023-02-18T18:08:38;10.90;99.90
3134;DHT22;1577;49.912;10.924;2023-02-18T18:11:04;10.80;99.90
3134;DHT22;1577;49.912;10.924;2023-02-18T18:13:31;10.80;99.90
3134;DHT22;1577;49.912;10.924;2023-02-18T18:15:57;10.80;99.90
3134;DHT22;1577;49.912;10.924;2023-02-18T18:18:23;10.80;99.90
3134;DHT22;1577;49.912;10.924;2023-02-18T18:20:51;10.80;99.90
3134;DHT22;1577;49.912;10.924;2023-02-18T18:23:19;10.80;99.90
3134;DHT22;1577;49.912;10.924;2023-02-18T18:25:49;10.80;99.90
3134;DHT22;1577;49.912;10.924;2023-02-18T18:28:15;10.80;99.90
3134;DHT22;1577;49.912;10.924;2023-02-18T18:30:45;10.80;99.90
3134;DHT22;1577;49.912;10.924;2023-02-18T18:33:28;10.80;99.90
3134;DHT22;1577;49.912;10.924;2023-02-18T18:35:56;10.80;99.90
3134;DHT22;1577;49.912;10.924;2023-02-18T18:38:24;10.80;99.90
3134;DHT22;1577;49.912;10.924;2023-02-18T18:40:50;10.70;99.90
3134;DHT22;1577;49.912;10.924;2023-02-18T18:43:19;10.70;99.90
3134;DHT22;1577;49.912;10.924;2023-02-18T18:45:45;10.70;99.90
3134;DHT22;1577;49.912;10.924;2023-02-18T18:48:11;10.70;99.90